sensor_id;sensor_type;location;lat;lon;timestamp;P1;durP1;ratioP1;P2;durP2;ratioP2
67508;SDS011;54354;44.724;11.284;2022-12-01T00:00:14;50.70;;;31.80;;
67508;SDS011;54354;44.724;11.284;2022-12-01T00:02:40;49.00;;;31.55;;
67508;SDS011;54354;44.724;11.284;2022-12-01T00:05:05;48.42;;;30.55;;
67508;SDS011;54354;44.724;11.284;2022-12-01T00:07:31;50.22;;;31.48;;
67508;SDS011;54354;44.724;11.284;2022-12-01T00:09:57;47.95;;;31.63;;
67508;SDS011;54354;44.724;11.284;2022-12-01T00:12:41;49.60;;;32.28;;
67508;SDS011;54354;44.724;11.284;2022-12-01T00:15:08;49.85;;;31.75;;
67508;SDS011;54354;44.724;11.284;2022-12-01T00:17:37;49.67;;;33.33;;
67508;SDS011;54354;44.724;11.284;2022-12-01T00:20:02;48.58;;;32.40;;
67508;SDS011;54354;44.724;11.284;2022-12-01T00:22:29;50.65;;;31.70;;
67508;SDS011;54354;44.724;11.284;2022-12-01T00:24:54;50.95;;;33.53;;
67508;SDS011;54354;44.724;11.284;2022-12-01T00:27:20;51.17;;;32.28;;
67508;SDS011;54354;44.724;11.284;2022-12-01T00:29:45;49.65;;;33.60;;
67508;SDS011;54354;44.724;11.284;2022-12-01T00:32:11;48.47;;;33.00;;
67508;SDS011;54354;44.724;11.284;2022-12-01T00:34:37;56.15;;;33.92;;
67508;SDS011;54354;44.724;11.284;2022-12-01T00:37:03;61.38;;;35.15;;
67508;SDS011;54354;44.724;11.284;2022-12-01T00:39:28;51.72;;;33.88;;
67508;SDS011;54354;44.724;11.284;2022-12-01T00:41:54;54.88;;;34.63;;
67508;SDS011;54354;44.724;11.284;2022-12-01T00:44:19;52.20;;;35.67;;
67508;SDS011;54354;44.724;11.284;2022-12-01T00:46:45;55.28;;;34.40;;
67508;SDS011;54354;44.724;11.284;2022-12-01T00:49:11;54.22;;;34.60;;
67508;SDS011;54354;44.724;11.284;2022-12-01T00:51:37;54.85;;;36.53;;
67508;SDS011;54354;44.724;11.284;2022-12-01T00:54:02;56.13;;;35.88;;
67508;SDS011;54354;44.724;11.284;2022-12-01T00:56:28;56.38;;;35.83;;
67508;SDS011;54354;44.724;11.284;2022-12-01T00:58:53;54.03;;;36.55;;
67508;SDS011;54354;44.724;11.284;2022-12-01T01:01:19;55.78;;;36.47;;
67508;SDS011;54354;44.724;11.284;2022-12-01T01:03:44;59.03;;;38.38;;
67508;SDS011;54354;44.724;11.284;2022-12-01T01:06:10;56.58;;;37.38;;
67508;SDS011;54354;44.724;11.284;2022-12-01T01:08:36;55.28;;;36.63;;
67508;SDS011;54354;44.724;11.284;2022-12-01T01:11:02;56.83;;;37.47;;
67508;SDS011;54354;44.724;11.284;2022-12-01T01:13:29;61.20;;;36.75;;
67508;SDS011;54354;44.724;11.284;2022-12-01T01:15:57;57.25;;;37.00;;
67508;SDS011;54354;44.724;11.284;2022-12-01T01:18:30;57.92;;;38.17;;
67508;SDS011;54354;44.724;11.284;2022-12-01T01:20:57;56.38;;;37.58;;
67508;SDS011;54354;44.724;11.284;2022-12-01T01:23:24;57.30;;;37.00;;
67508;SDS011;54354;44.724;11.284;2022-12-01T01:25:50;55.63;;;36.95;;
67508;SDS011;54354;44.724;11.284;2022-12-01T01:28:16;58.33;;;37.17;;
67508;SDS011;54354;44.724;11.284;2022-12-01T01:30:42;58.42;;;38.00;;
67508;SDS011;54354;44.724;11.284;2022-12-01T01:33:07;61.55;;;38.42;;
67508;SDS011;54354;44.724;11.284;2022-12-01T01:35:33;56.33;;;38.33;;
67508;SDS011;54354;44.724;11.284;2022-12-01T01:37:58;60.70;;;38.33;;
67508;SDS011;54354;44.724;11.284;2022-12-01T01:40:24;57.65;;;37.92;;
67508;SDS011;54354;44.724;11.284;2022-12-01T01:42:49;60.92;;;39.67;;
67508;SDS011;54354;44.724;11.284;2022-12-01T01:45:22;59.92;;;38.45;;
67508;SDS011;54354;44.724;11.284;2022-12-01T01:47:53;63.47;;;39.40;;
67508;SDS011;54354;44.724;11.284;2022-12-01T01:50:23;65.10;;;39.88;;
67508;SDS011;54354;44.724;11.284;2022-12-01T01:52:54;62.53;;;40.47;;
67508;SDS011;54354;44.724;11.284;2022-12-01T01:55:32;61.92;;;39.97;;
67508;SDS011;54354;44.724;11.284;2022-12-01T01:57:59;60.85;;;38.58;;
67508;SDS011;54354;44.724;11.284;2022-12-01T02:00:26;65.70;;;40.53;;
67508;SDS011;54354;44.724;11.284;2022-12-01T02:02:52;61.05;;;39.50;;
67508;SDS011;54354;44.724;11.284;2022-12-01T02:05:24;64.43;;;39.85;;
67508;SDS011;54354;44.724;11.284;2022-12-01T02:07:54;60.40;;;38.95;;
67508;SDS011;54354;44.724;11.284;2022-12-01T02:10:21;64.60;;;39.88;;
67508;SDS011;54354;44.724;11.284;2022-12-01T02:21:18;63.08;;;39.60;;
67508;SDS011;54354;44.724;11.284;2022-12-01T02:26:48;60.00;;;39.05;;
67508;SDS011;54354;44.724;11.284;2022-12-01T02:38:06;60.65;;;37.85;;
67508;SDS011;54354;44.724;11.284;2022-12-01T02:40:37;60.72;;;38.33;;
67508;SDS011;54354;44.724;11.284;2022-12-01T02:48:39;60.22;;;39.80;;
67508;SDS011;54354;44.724;11.284;2022-12-01T02:51:18;63.70;;;38.97;;
67508;SDS011;54354;44.724;11.284;2022-12-01T02:53:47;59.40;;;37.85;;
67508;SDS011;54354;44.724;11.284;2022-12-01T02:56:13;56.92;;;37.35;;
67508;SDS011;54354;44.724;11.284;2022-12-01T02:58:42;60.92;;;38.55;;
67508;SDS011;54354;44.724;11.284;2022-12-01T03:01:13;59.53;;;38.28;;
67508;SDS011;54354;44.724;11.284;2022-12-01T03:06:17;63.45;;;38.35;;
67508;SDS011;54354;44.724;11.284;2022-12-01T03:09:14;63.53;;;38.72;;
67508;SDS011;54354;44.724;11.284;2022-12-01T03:14:43;59.40;;;38.03;;
67508;SDS011;54354;44.724;11.284;2022-12-01T03:17:21;56.85;;;38.13;;
67508;SDS011;54354;44.724;11.284;2022-12-01T03:19:54;61.05;;;38.72;;
67508;SDS011;54354;44.724;11.284;2022-12-01T03:22:26;58.20;;;38.40;;
67508;SDS011;54354;44.724;11.284;2022-12-01T03:24:56;61.47;;;38.03;;
67508;SDS011;54354;44.724;11.284;2022-12-01T03:27:26;57.35;;;37.13;;
67508;SDS011;54354;44.724;11.284;2022-12-01T03:29:54;64.53;;;39.63;;
67508;SDS011;54354;44.724;11.284;2022-12-01T03:32:27;59.40;;;37.47;;
67508;SDS011;54354;44.724;11.284;2022-12-01T03:35:03;62.78;;;37.53;;
67508;SDS011;54354;44.724;11.284;2022-12-01T03:37:38;60.17;;;36.70;;
67508;SDS011;54354;44.724;11.284;2022-12-01T03:40:07;58.28;;;37.47;;
67508;SDS011;54354;44.724;11.284;2022-12-01T03:42:44;64.40;;;39.70;;
67508;SDS011;54354;44.724;11.284;2022-12-01T03:45:44;59.60;;;37.55;;
67508;SDS011;54354;44.724;11.284;2022-12-01T03:48:11;57.92;;;37.33;;
67508;SDS011;54354;44.724;11.284;2022-12-01T03:50:43;65.07;;;38.70;;
67508;SDS011;54354;44.724;11.284;2022-12-01T03:55:48;57.83;;;36.38;;
67508;SDS011;54354;44.724;11.284;2022-12-01T03:58:19;58.58;;;37.80;;
67508;SDS011;54354;44.724;11.284;2022-12-01T04:00:50;63.10;;;37.05;;
67508;SDS011;54354;44.724;11.284;2022-12-01T04:03:21;63.47;;;38.92;;
67508;SDS011;54354;44.724;11.284;2022-12-01T04:05:48;58.95;;;37.80;;
67508;SDS011;54354;44.724;11.284;2022-12-01T04:08:14;64.22;;;37.97;;
67508;SDS011;54354;44.724;11.284;2022-12-01T04:10:39;59.03;;;38.95;;
67508;SDS011;54354;44.724;11.284;2022-12-01T04:13:05;61.67;;;37.95;;
67508;SDS011;54354;44.724;11.284;2022-12-01T04:15:36;59.17;;;38.05;;
67508;SDS011;54354;44.724;11.284;2022-12-01T04:18:02;58.33;;;36.95;;
67508;SDS011;54354;44.724;11.284;2022-12-01T04:20:29;62.63;;;39.10;;
67508;SDS011;54354;44.724;11.284;2022-12-01T04:22:54;62.97;;;38.50;;
67508;SDS011;54354;44.724;11.284;2022-12-01T04:25:19;60.90;;;38.97;;
67508;SDS011;54354;44.724;11.284;2022-12-01T04:27:45;61.33;;;39.15;;
67508;SDS011;54354;44.724;11.284;2022-12-01T04:30:10;60.88;;;39.17;;
67508;SDS011;54354;44.724;11.284;2022-12-01T04:32:40;62.05;;;38.35;;
67508;SDS011;54354;44.724;11.284;2022-12-01T04:35:07;58.65;;;37.28;;
67508;SDS011;54354;44.724;11.284;2022-12-01T04:37:35;57.17;;;36.28;;
67508;SDS011;54354;44.724;11.284;2022-12-01T04:40:01;58.97;;;38.20;;
67508;SDS011;54354;44.724;11.284;2022-12-01T04:42:26;57.65;;;37.10;;
67508;SDS011;54354;44.724;11.284;2022-12-01T04:44:52;60.85;;;38.50;;
67508;SDS011;54354;44.724;11.284;2022-12-01T04:47:17;58.88;;;36.55;;
67508;SDS011;54354;44.724;11.284;2022-12-01T04:49:43;63.88;;;38.83;;
67508;SDS011;54354;44.724;11.284;2022-12-01T04:52:08;64.93;;;39.85;;
67508;SDS011;54354;44.724;11.284;2022-12-01T04:54:34;60.45;;;38.88;;
67508;SDS011;54354;44.724;11.284;2022-12-01T04:56:59;59.95;;;38.10;;
67508;SDS011;54354;44.724;11.284;2022-12-01T04:59:25;57.83;;;36.47;;
67508;SDS011;54354;44.724;11.284;2022-12-01T05:01:50;61.45;;;38.22;;
67508;SDS011;54354;44.724;11.284;2022-12-01T05:04:16;60.72;;;38.50;;
67508;SDS011;54354;44.724;11.284;2022-12-01T05:06:42;61.85;;;38.65;;
67508;SDS011;54354;44.724;11.284;2022-12-01T05:09:08;61.08;;;37.85;;
67508;SDS011;54354;44.724;11.284;2022-12-01T05:11:38;59.35;;;37.38;;
67508;SDS011;54354;44.724;11.284;2022-12-01T05:14:04;61.03;;;37.08;;
67508;SDS011;54354;44.724;11.284;2022-12-01T05:16:31;63.70;;;38.42;;
67508;SDS011;54354;44.724;11.284;2022-12-01T05:18:58;59.70;;;38.38;;
67508;SDS011;54354;44.724;11.284;2022-12-01T05:21:44;66.32;;;40.00;;
67508;SDS011;54354;44.724;11.284;2022-12-01T05:24:11;58.60;;;37.95;;
67508;SDS011;54354;44.724;11.284;2022-12-01T05:26:38;59.40;;;37.30;;
67508;SDS011;54354;44.724;11.284;2022-12-01T05:29:05;59.33;;;38.60;;
67508;SDS011;54354;44.724;11.284;2022-12-01T05:31:30;61.40;;;38.67;;
67508;SDS011;54354;44.724;11.284;2022-12-01T05:33:56;57.03;;;37.17;;
67508;SDS011;54354;44.724;11.284;2022-12-01T05:36:21;58.88;;;38.15;;
67508;SDS011;54354;44.724;11.284;2022-12-01T05:38:47;62.42;;;38.13;;
67508;SDS011;54354;44.724;11.284;2022-12-01T05:41:13;59.38;;;38.75;;
67508;SDS011;54354;44.724;11.284;2022-12-01T05:43:39;62.72;;;38.10;;
67508;SDS011;54354;44.724;11.284;2022-12-01T05:46:04;59.65;;;39.17;;
67508;SDS011;54354;44.724;11.284;2022-12-01T05:48:30;61.97;;;39.15;;
67508;SDS011;54354;44.724;11.284;2022-12-01T05:50:55;64.70;;;38.90;;
67508;SDS011;54354;44.724;11.284;2022-12-01T05:53:21;60.58;;;38.00;;
67508;SDS011;54354;44.724;11.284;2022-12-01T05:55:50;62.78;;;38.50;;
67508;SDS011;54354;44.724;11.284;2022-12-01T05:58:19;68.35;;;39.65;;
67508;SDS011;54354;44.724;11.284;2022-12-01T06:00:46;60.38;;;39.05;;
67508;SDS011;54354;44.724;11.284;2022-12-01T06:03:12;63.75;;;39.40;;
67508;SDS011;54354;44.724;11.284;2022-12-01T06:05:38;60.28;;;38.40;;
67508;SDS011;54354;44.724;11.284;2022-12-01T06:08:04;60.75;;;37.63;;
67508;SDS011;54354;44.724;11.284;2022-12-01T06:10:29;65.93;;;41.28;;
67508;SDS011;54354;44.724;11.284;2022-12-01T06:12:55;59.17;;;39.05;;
67508;SDS011;54354;44.724;11.284;2022-12-01T06:15:20;67.57;;;40.00;;
67508;SDS011;54354;44.724;11.284;2022-12-01T06:17:46;65.70;;;39.58;;
67508;SDS011;54354;44.724;11.284;2022-12-01T06:20:11;64.25;;;39.47;;
67508;SDS011;54354;44.724;11.284;2022-12-01T06:22:37;71.07;;;39.25;;
67508;SDS011;54354;44.724;11.284;2022-12-01T06:25:02;64.63;;;38.78;;
67508;SDS011;54354;44.724;11.284;2022-12-01T06:27:28;63.05;;;38.53;;
67508;SDS011;54354;44.724;11.284;2022-12-01T06:29:54;65.35;;;39.15;;
67508;SDS011;54354;44.724;11.284;2022-12-01T06:32:19;63.42;;;38.25;;
67508;SDS011;54354;44.724;11.284;2022-12-01T06:34:45;61.70;;;37.85;;
67508;SDS011;54354;44.724;11.284;2022-12-01T06:37:10;61.97;;;37.95;;
67508;SDS011;54354;44.724;11.284;2022-12-01T06:39:36;66.63;;;38.83;;
67508;SDS011;54354;44.724;11.284;2022-12-01T06:42:01;67.38;;;38.00;;
67508;SDS011;54354;44.724;11.284;2022-12-01T06:44:27;63.75;;;38.33;;
67508;SDS011;54354;44.724;11.284;2022-12-01T06:46:53;63.72;;;39.03;;
67508;SDS011;54354;44.724;11.284;2022-12-01T06:49:21;61.78;;;38.13;;
67508;SDS011;54354;44.724;11.284;2022-12-01T06:51:46;66.30;;;38.50;;
67508;SDS011;54354;44.724;11.284;2022-12-01T06:54:12;61.80;;;38.17;;
67508;SDS011;54354;44.724;11.284;2022-12-01T06:56:38;61.50;;;38.33;;
67508;SDS011;54354;44.724;11.284;2022-12-01T06:59:04;61.38;;;37.50;;
67508;SDS011;54354;44.724;11.284;2022-12-01T07:01:30;61.25;;;38.42;;
67508;SDS011;54354;44.724;11.284;2022-12-01T07:03:55;71.70;;;38.70;;
67508;SDS011;54354;44.724;11.284;2022-12-01T07:06:21;64.38;;;39.03;;
67508;SDS011;54354;44.724;11.284;2022-12-01T07:08:46;67.00;;;37.72;;
67508;SDS011;54354;44.724;11.284;2022-12-01T07:11:13;63.67;;;38.30;;
67508;SDS011;54354;44.724;11.284;2022-12-01T07:13:42;61.97;;;37.45;;
67508;SDS011;54354;44.724;11.284;2022-12-01T07:16:13;66.20;;;39.08;;
67508;SDS011;54354;44.724;11.284;2022-12-01T07:18:39;63.20;;;37.40;;
67508;SDS011;54354;44.724;11.284;2022-12-01T07:21:06;59.40;;;36.88;;
67508;SDS011;54354;44.724;11.284;2022-12-01T07:23:35;69.28;;;38.72;;
67508;SDS011;54354;44.724;11.284;2022-12-01T07:26:01;67.63;;;37.08;;
67508;SDS011;54354;44.724;11.284;2022-12-01T07:28:30;64.32;;;39.15;;
67508;SDS011;54354;44.724;11.284;2022-12-01T07:31:03;67.47;;;39.78;;
67508;SDS011;54354;44.724;11.284;2022-12-01T07:33:34;65.53;;;38.30;;
67508;SDS011;54354;44.724;11.284;2022-12-01T07:36:00;64.18;;;38.05;;
67508;SDS011;54354;44.724;11.284;2022-12-01T07:38:27;66.00;;;37.65;;
67508;SDS011;54354;44.724;11.284;2022-12-01T07:41:05;62.75;;;38.45;;
67508;SDS011;54354;44.724;11.284;2022-12-01T07:43:33;63.20;;;38.65;;
67508;SDS011;54354;44.724;11.284;2022-12-01T07:46:02;62.67;;;37.15;;
67508;SDS011;54354;44.724;11.284;2022-12-01T07:48:33;67.25;;;38.72;;
67508;SDS011;54354;44.724;11.284;2022-12-01T07:51:00;57.45;;;36.38;;
67508;SDS011;54354;44.724;11.284;2022-12-01T07:53:25;64.97;;;37.35;;
67508;SDS011;54354;44.724;11.284;2022-12-01T07:55:51;64.78;;;38.83;;
67508;SDS011;54354;44.724;11.284;2022-12-01T07:58:16;62.20;;;37.88;;
67508;SDS011;54354;44.724;11.284;2022-12-01T08:00:42;61.95;;;38.33;;
67508;SDS011;54354;44.724;11.284;2022-12-01T08:03:07;64.45;;;39.28;;
67508;SDS011;54354;44.724;11.284;2022-12-01T08:05:33;62.33;;;38.63;;
67508;SDS011;54354;44.724;11.284;2022-12-01T08:07:58;62.90;;;38.38;;
67508;SDS011;54354;44.724;11.284;2022-12-01T08:10:24;69.75;;;40.30;;
67508;SDS011;54354;44.724;11.284;2022-12-01T08:12:49;64.45;;;39.05;;
67508;SDS011;54354;44.724;11.284;2022-12-01T08:15:15;62.10;;;37.63;;
67508;SDS011;54354;44.724;11.284;2022-12-01T08:17:41;63.10;;;37.78;;
67508;SDS011;54354;44.724;11.284;2022-12-01T08:20:06;64.75;;;39.38;;
67508;SDS011;54354;44.724;11.284;2022-12-01T08:22:33;63.03;;;38.45;;
67508;SDS011;54354;44.724;11.284;2022-12-01T08:24:59;66.35;;;39.25;;
67508;SDS011;54354;44.724;11.284;2022-12-01T08:27:24;62.65;;;39.22;;
67508;SDS011;54354;44.724;11.284;2022-12-01T08:29:50;63.13;;;37.92;;
67508;SDS011;54354;44.724;11.284;2022-12-01T08:32:16;58.90;;;37.42;;
67508;SDS011;54354;44.724;11.284;2022-12-01T08:34:41;70.15;;;38.78;;
67508;SDS011;54354;44.724;11.284;2022-12-01T08:37:07;62.88;;;38.63;;
67508;SDS011;54354;44.724;11.284;2022-12-01T08:39:32;61.42;;;38.05;;
67508;SDS011;54354;44.724;11.284;2022-12-01T08:41:58;63.50;;;36.60;;
67508;SDS011;54354;44.724;11.284;2022-12-01T08:44:23;60.53;;;36.72;;
67508;SDS011;54354;44.724;11.284;2022-12-01T08:46:49;62.47;;;38.83;;
67508;SDS011;54354;44.724;11.284;2022-12-01T08:49:14;68.00;;;38.30;;
67508;SDS011;54354;44.724;11.284;2022-12-01T08:51:40;62.17;;;38.65;;
67508;SDS011;54354;44.724;11.284;2022-12-01T08:54:06;63.30;;;39.55;;
67508;SDS011;54354;44.724;11.284;2022-12-01T08:56:33;60.78;;;36.30;;
67508;SDS011;54354;44.724;11.284;2022-12-01T08:59:01;55.72;;;36.30;;
67508;SDS011;54354;44.724;11.284;2022-12-01T09:01:27;57.72;;;36.90;;
67508;SDS011;54354;44.724;11.284;2022-12-01T09:03:55;57.60;;;36.13;;
67508;SDS011;54354;44.724;11.284;2022-12-01T09:06:30;59.97;;;37.47;;
67508;SDS011;54354;44.724;11.284;2022-12-01T09:08:58;56.45;;;36.42;;
67508;SDS011;54354;44.724;11.284;2022-12-01T09:11:24;56.08;;;36.63;;
67508;SDS011;54354;44.724;11.284;2022-12-01T09:13:50;56.40;;;35.78;;
67508;SDS011;54354;44.724;11.284;2022-12-01T09:16:16;53.92;;;35.60;;
67508;SDS011;54354;44.724;11.284;2022-12-01T09:18:43;55.60;;;34.88;;
67508;SDS011;54354;44.724;11.284;2022-12-01T09:21:11;56.85;;;36.08;;
67508;SDS011;54354;44.724;11.284;2022-12-01T09:23:37;53.38;;;35.13;;
67508;SDS011;54354;44.724;11.284;2022-12-01T09:26:03;57.45;;;35.38;;
67508;SDS011;54354;44.724;11.284;2022-12-01T09:28:29;54.53;;;36.08;;
67508;SDS011;54354;44.724;11.284;2022-12-01T09:30:55;59.30;;;37.25;;
67508;SDS011;54354;44.724;11.284;2022-12-01T09:33:22;51.00;;;33.58;;
67508;SDS011;54354;44.724;11.284;2022-12-01T09:35:47;52.25;;;34.78;;
67508;SDS011;54354;44.724;11.284;2022-12-01T09:38:12;54.53;;;34.15;;
67508;SDS011;54354;44.724;11.284;2022-12-01T09:40:39;49.72;;;33.28;;
67508;SDS011;54354;44.724;11.284;2022-12-01T09:43:26;51.42;;;33.72;;
67508;SDS011;54354;44.724;11.284;2022-12-01T09:45:58;52.13;;;34.60;;
67508;SDS011;54354;44.724;11.284;2022-12-01T09:48:30;50.63;;;33.67;;
67508;SDS011;54354;44.724;11.284;2022-12-01T09:51:10;50.35;;;34.38;;
67508;SDS011;54354;44.724;11.284;2022-12-01T09:53:37;50.05;;;32.72;;
67508;SDS011;54354;44.724;11.284;2022-12-01T09:56:03;46.63;;;32.22;;
67508;SDS011;54354;44.724;11.284;2022-12-01T09:58:30;45.65;;;32.28;;
67508;SDS011;54354;44.724;11.284;2022-12-01T10:00:56;44.60;;;31.63;;
67508;SDS011;54354;44.724;11.284;2022-12-01T10:06:02;46.70;;;31.63;;
67508;SDS011;54354;44.724;11.284;2022-12-01T10:08:34;41.13;;;30.73;;
67508;SDS011;54354;44.724;11.284;2022-12-01T10:11:07;42.55;;;30.88;;
67508;SDS011;54354;44.724;11.284;2022-12-01T10:13:40;42.58;;;30.42;;
67508;SDS011;54354;44.724;11.284;2022-12-01T10:16:13;40.83;;;28.98;;
67508;SDS011;54354;44.724;11.284;2022-12-01T10:18:48;43.20;;;31.33;;
67508;SDS011;54354;44.724;11.284;2022-12-01T10:26:54;44.35;;;28.58;;
67508;SDS011;54354;44.724;11.284;2022-12-01T10:35:07;37.75;;;27.27;;
67508;SDS011;54354;44.724;11.284;2022-12-01T10:37:36;39.40;;;28.15;;
67508;SDS011;54354;44.724;11.284;2022-12-01T10:40:02;37.17;;;27.20;;
67508;SDS011;54354;44.724;11.284;2022-12-01T10:42:40;38.65;;;27.95;;
67508;SDS011;54354;44.724;11.284;2022-12-01T10:45:40;39.28;;;27.67;;
67508;SDS011;54354;44.724;11.284;2022-12-01T10:48:19;39.83;;;28.35;;
67508;SDS011;54354;44.724;11.284;2022-12-01T10:50:48;37.42;;;27.20;;
67508;SDS011;54354;44.724;11.284;2022-12-01T10:55:48;38.17;;;27.63;;
67508;SDS011;54354;44.724;11.284;2022-12-01T10:58:17;41.55;;;28.58;;
67508;SDS011;54354;44.724;11.284;2022-12-01T11:00:43;40.80;;;27.25;;
67508;SDS011;54354;44.724;11.284;2022-12-01T11:03:23;37.30;;;26.98;;
67508;SDS011;54354;44.724;11.284;2022-12-01T11:05:56;37.92;;;27.60;;
67508;SDS011;54354;44.724;11.284;2022-12-01T11:08:29;37.30;;;27.00;;
67508;SDS011;54354;44.724;11.284;2022-12-01T11:10:55;37.78;;;27.48;;
67508;SDS011;54354;44.724;11.284;2022-12-01T11:13:28;37.20;;;26.80;;
67508;SDS011;54354;44.724;11.284;2022-12-01T11:15:57;35.33;;;26.25;;
67508;SDS011;54354;44.724;11.284;2022-12-01T11:18:36;34.50;;;25.98;;
67508;SDS011;54354;44.724;11.284;2022-12-01T11:23:30;38.65;;;26.38;;
67508;SDS011;54354;44.724;11.284;2022-12-01T11:28:30;39.17;;;28.38;;
67508;SDS011;54354;44.724;11.284;2022-12-01T11:30:59;36.90;;;26.98;;
67508;SDS011;54354;44.724;11.284;2022-12-01T11:33:26;34.88;;;26.45;;
67508;SDS011;54354;44.724;11.284;2022-12-01T11:35:53;40.03;;;26.92;;
67508;SDS011;54354;44.724;11.284;2022-12-01T11:38:22;34.75;;;26.10;;
67508;SDS011;54354;44.724;11.284;2022-12-01T11:40:55;39.75;;;27.02;;
67508;SDS011;54354;44.724;11.284;2022-12-01T11:45:55;38.33;;;27.77;;
67508;SDS011;54354;44.724;11.284;2022-12-01T11:48:58;40.17;;;27.60;;
67508;SDS011;54354;44.724;11.284;2022-12-01T11:51:28;40.75;;;27.73;;
67508;SDS011;54354;44.724;11.284;2022-12-01T11:54:11;38.13;;;27.60;;
67508;SDS011;54354;44.724;11.284;2022-12-01T11:56:37;39.28;;;27.20;;
67508;SDS011;54354;44.724;11.284;2022-12-01T12:01:54;40.25;;;28.23;;
67508;SDS011;54354;44.724;11.284;2022-12-01T12:04:38;40.17;;;28.20;;
67508;SDS011;54354;44.724;11.284;2022-12-01T12:15:29;44.25;;;27.83;;
67508;SDS011;54354;44.724;11.284;2022-12-01T12:23:39;35.83;;;25.35;;
67508;SDS011;54354;44.724;11.284;2022-12-01T12:26:24;32.58;;;23.40;;
67508;SDS011;54354;44.724;11.284;2022-12-01T12:37:14;34.15;;;22.98;;
67508;SDS011;54354;44.724;11.284;2022-12-01T12:44:52;33.88;;;22.02;;
67508;SDS011;54354;44.724;11.284;2022-12-01T12:53:16;29.83;;;21.70;;
67508;SDS011;54354;44.724;11.284;2022-12-01T12:55:45;29.17;;;21.23;;
67508;SDS011;54354;44.724;11.284;2022-12-01T13:01:00;28.02;;;20.75;;
67508;SDS011;54354;44.724;11.284;2022-12-01T13:09:11;27.85;;;19.83;;
67508;SDS011;54354;44.724;11.284;2022-12-01T13:11:46;26.83;;;20.55;;
67508;SDS011;54354;44.724;11.284;2022-12-01T13:14:21;30.27;;;20.02;;
67508;SDS011;54354;44.724;11.284;2022-12-01T13:16:51;26.45;;;19.70;;
67508;SDS011;54354;44.724;11.284;2022-12-01T13:21:53;28.27;;;18.95;;
67508;SDS011;54354;44.724;11.284;2022-12-01T13:24:21;24.73;;;18.48;;
67508;SDS011;54354;44.724;11.284;2022-12-01T13:26:50;23.58;;;18.23;;
67508;SDS011;54354;44.724;11.284;2022-12-01T13:29:21;22.05;;;17.23;;
67508;SDS011;54354;44.724;11.284;2022-12-01T13:31:50;21.80;;;16.40;;
67508;SDS011;54354;44.724;11.284;2022-12-01T13:36:53;22.85;;;17.63;;
67508;SDS011;54354;44.724;11.284;2022-12-01T13:39:21;23.02;;;17.40;;
67508;SDS011;54354;44.724;11.284;2022-12-01T13:41:59;21.23;;;16.25;;
67508;SDS011;54354;44.724;11.284;2022-12-01T13:44:44;20.40;;;15.50;;
67508;SDS011;54354;44.724;11.284;2022-12-01T13:57:27;17.15;;;12.70;;
67508;SDS011;54354;44.724;11.284;2022-12-01T14:02:24;14.20;;;11.70;;
67508;SDS011;54354;44.724;11.284;2022-12-01T14:04:51;15.20;;;11.13;;
67508;SDS011;54354;44.724;11.284;2022-12-01T14:09:51;13.40;;;10.90;;
67508;SDS011;54354;44.724;11.284;2022-12-01T14:14:59;12.13;;;10.07;;
67508;SDS011;54354;44.724;11.284;2022-12-01T14:17:29;12.32;;;10.32;;
67508;SDS011;54354;44.724;11.284;2022-12-01T14:20:06;13.40;;;10.27;;
67508;SDS011;54354;44.724;11.284;2022-12-01T14:22:44;13.90;;;10.55;;
67508;SDS011;54354;44.724;11.284;2022-12-01T14:27:44;11.35;;;9.68;;
67508;SDS011;54354;44.724;11.284;2022-12-01T14:36:53;13.20;;;10.65;;
67508;SDS011;54354;44.724;11.284;2022-12-01T14:39:25;16.95;;;11.27;;
67508;SDS011;54354;44.724;11.284;2022-12-01T14:42:13;19.73;;;11.68;;
67508;SDS011;54354;44.724;11.284;2022-12-01T14:45:00;18.90;;;12.35;;
67508;SDS011;54354;44.724;11.284;2022-12-01T14:47:44;20.30;;;12.32;;
67508;SDS011;54354;44.724;11.284;2022-12-01T14:52:46;18.60;;;14.63;;
67508;SDS011;54354;44.724;11.284;2022-12-01T14:55:38;19.63;;;14.55;;
67508;SDS011;54354;44.724;11.284;2022-12-01T14:58:12;22.08;;;15.48;;
67508;SDS011;54354;44.724;11.284;2022-12-01T15:00:48;19.45;;;14.43;;
67508;SDS011;54354;44.724;11.284;2022-12-01T15:03:20;21.05;;;15.50;;
67508;SDS011;54354;44.724;11.284;2022-12-01T15:05:47;28.15;;;14.75;;
67508;SDS011;54354;44.724;11.284;2022-12-01T15:08:23;26.17;;;16.05;;
67508;SDS011;54354;44.724;11.284;2022-12-01T15:10:54;20.23;;;15.27;;
67508;SDS011;54354;44.724;11.284;2022-12-01T15:13:23;24.77;;;16.30;;
67508;SDS011;54354;44.724;11.284;2022-12-01T15:15:57;26.23;;;17.08;;
67508;SDS011;54354;44.724;11.284;2022-12-01T15:18:27;25.58;;;17.65;;
67508;SDS011;54354;44.724;11.284;2022-12-01T15:20:55;24.40;;;16.73;;
67508;SDS011;54354;44.724;11.284;2022-12-01T15:23:24;26.27;;;18.20;;
67508;SDS011;54354;44.724;11.284;2022-12-01T15:25:50;25.13;;;17.85;;
67508;SDS011;54354;44.724;11.284;2022-12-01T15:28:17;24.80;;;17.83;;
67508;SDS011;54354;44.724;11.284;2022-12-01T15:30:51;29.05;;;19.20;;
67508;SDS011;54354;44.724;11.284;2022-12-01T15:35:59;28.33;;;18.95;;
67508;SDS011;54354;44.724;11.284;2022-12-01T15:38:35;26.63;;;19.02;;
67508;SDS011;54354;44.724;11.284;2022-12-01T15:41:04;28.35;;;19.25;;
67508;SDS011;54354;44.724;11.284;2022-12-01T15:43:32;28.15;;;18.92;;
67508;SDS011;54354;44.724;11.284;2022-12-01T15:46:10;28.58;;;19.80;;
67508;SDS011;54354;44.724;11.284;2022-12-01T15:48:37;30.23;;;19.77;;
67508;SDS011;54354;44.724;11.284;2022-12-01T15:54:00;33.72;;;21.33;;
67508;SDS011;54354;44.724;11.284;2022-12-01T15:56:31;32.90;;;21.23;;
67508;SDS011;54354;44.724;11.284;2022-12-01T15:59:06;40.35;;;22.45;;
67508;SDS011;54354;44.724;11.284;2022-12-01T16:01:36;37.28;;;24.30;;
67508;SDS011;54354;44.724;11.284;2022-12-01T16:04:04;38.08;;;23.95;;
67508;SDS011;54354;44.724;11.284;2022-12-01T16:06:38;42.33;;;25.02;;
67508;SDS011;54354;44.724;11.284;2022-12-01T16:09:18;38.45;;;25.35;;
67508;SDS011;54354;44.724;11.284;2022-12-01T16:12:04;47.22;;;27.80;;
67508;SDS011;54354;44.724;11.284;2022-12-01T16:14:31;49.17;;;30.65;;
67508;SDS011;54354;44.724;11.284;2022-12-01T16:16:58;59.22;;;34.85;;
67508;SDS011;54354;44.724;11.284;2022-12-01T16:24:35;48.58;;;29.35;;
67508;SDS011;54354;44.724;11.284;2022-12-01T16:30:04;34.65;;;22.77;;
67508;SDS011;54354;44.724;11.284;2022-12-01T16:32:43;37.53;;;22.48;;
67508;SDS011;54354;44.724;11.284;2022-12-01T16:35:22;30.40;;;20.90;;
67508;SDS011;54354;44.724;11.284;2022-12-01T16:37:56;38.25;;;22.77;;
67508;SDS011;54354;44.724;11.284;2022-12-01T16:40:22;45.28;;;24.42;;
67508;SDS011;54354;44.724;11.284;2022-12-01T16:42:48;41.30;;;23.17;;
67508;SDS011;54354;44.724;11.284;2022-12-01T16:45:15;36.90;;;21.95;;
67508;SDS011;54354;44.724;11.284;2022-12-01T16:47:42;37.28;;;21.90;;
67508;SDS011;54354;44.724;11.284;2022-12-01T16:50:28;35.42;;;21.73;;